sensor_id;sensor_type;location;lat;lon;timestamp;P1;durP1;ratioP1;P2;durP2;ratioP2
70535;SDS011;58089;48.752;11.338;2022-07-04T00:01:45;4.33;;;1.30;;
70535;SDS011;58089;48.752;11.338;2022-07-04T00:04:10;5.07;;;1.27;;
70535;SDS011;58089;48.752;11.338;2022-07-04T00:06:36;4.57;;;1.50;;
70535;SDS011;58089;48.752;11.338;2022-07-04T00:09:01;4.93;;;1.20;;
70535;SDS011;58089;48.752;11.338;2022-07-04T00:11:26;4.37;;;1.20;;
70535;SDS011;58089;48.752;11.338;2022-07-04T00:13:51;3.83;;;1.23;;
70535;SDS011;58089;48.752;11.338;2022-07-04T00:16:16;4.07;;;1.10;;
70535;SDS011;58089;48.752;11.338;2022-07-04T00:18:41;5.35;;;1.30;;
70535;SDS011;58089;48.752;11.338;2022-07-04T00:21:07;5.13;;;1.30;;
70535;SDS011;58089;48.752;11.338;2022-07-04T00:23:32;5.27;;;1.27;;
70535;SDS011;58089;48.752;11.338;2022-07-04T00:25:57;5.30;;;1.47;;
70535;SDS011;58089;48.752;11.338;2022-07-04T00:28:22;4.10;;;1.20;;
70535;SDS011;58089;48.752;11.338;2022-07-04T00:30:48;3.77;;;1.43;;
70535;SDS011;58089;48.752;11.338;2022-07-04T00:33:13;7.70;;;1.50;;
70535;SDS011;58089;48.752;11.338;2022-07-04T00:35:38;4.80;;;1.20;;
70535;SDS011;58089;48.752;11.338;2022-07-04T00:38:04;4.80;;;1.20;;
70535;SDS011;58089;48.752;11.338;2022-07-04T00:40:29;4.17;;;1.10;;
70535;SDS011;58089;48.752;11.338;2022-07-04T00:42:59;6.03;;;1.40;;
70535;SDS011;58089;48.752;11.338;2022-07-04T00:45:24;3.50;;;1.13;;
70535;SDS011;58089;48.752;11.338;2022-07-04T00:47:49;4.37;;;1.40;;
70535;SDS011;58089;48.752;11.338;2022-07-04T00:50:14;3.60;;;1.13;;
70535;SDS011;58089;48.752;11.338;2022-07-04T00:52:40;3.70;;;1.10;;
70535;SDS011;58089;48.752;11.338;2022-07-04T00:55:05;5.23;;;1.37;;
70535;SDS011;58089;48.752;11.338;2022-07-04T00:57:30;4.60;;;1.30;;
70535;SDS011;58089;48.752;11.338;2022-07-04T00:59:55;4.87;;;1.30;;
70535;SDS011;58089;48.752;11.338;2022-07-04T01:02:20;3.50;;;1.00;;
70535;SDS011;58089;48.752;11.338;2022-07-04T01:04:46;3.80;;;1.33;;
70535;SDS011;58089;48.752;11.338;2022-07-04T01:07:11;4.20;;;1.47;;
70535;SDS011;58089;48.752;11.338;2022-07-04T01:09:37;4.07;;;1.37;;
70535;SDS011;58089;48.752;11.338;2022-07-04T01:12:02;4.83;;;1.40;;
70535;SDS011;58089;48.752;11.338;2022-07-04T01:14:27;4.07;;;1.10;;
70535;SDS011;58089;48.752;11.338;2022-07-04T01:16:53;4.67;;;1.20;;
70535;SDS011;58089;48.752;11.338;2022-07-04T01:19:18;5.20;;;1.40;;
70535;SDS011;58089;48.752;11.338;2022-07-04T01:21:43;5.17;;;1.60;;
70535;SDS011;58089;48.752;11.338;2022-07-04T01:24:10;4.73;;;1.40;;
70535;SDS011;58089;48.752;11.338;2022-07-04T01:26:36;3.58;;;1.20;;
70535;SDS011;58089;48.752;11.338;2022-07-04T01:29:01;4.50;;;1.60;;
70535;SDS011;58089;48.752;11.338;2022-07-04T01:31:26;5.65;;;1.50;;
70535;SDS011;58089;48.752;11.338;2022-07-04T01:33:52;4.53;;;1.30;;
70535;SDS011;58089;48.752;11.338;2022-07-04T01:36:17;5.20;;;1.60;;
70535;SDS011;58089;48.752;11.338;2022-07-04T01:38:42;4.63;;;1.67;;
70535;SDS011;58089;48.752;11.338;2022-07-04T01:41:07;3.70;;;1.50;;
70535;SDS011;58089;48.752;11.338;2022-07-04T01:43:32;5.30;;;1.40;;
70535;SDS011;58089;48.752;11.338;2022-07-04T01:45:59;3.67;;;1.30;;
70535;SDS011;58089;48.752;11.338;2022-07-04T01:48:24;3.60;;;1.20;;
70535;SDS011;58089;48.752;11.338;2022-07-04T01:50:50;4.82;;;1.30;;
70535;SDS011;58089;48.752;11.338;2022-07-04T01:53:15;4.57;;;1.30;;
70535;SDS011;58089;48.752;11.338;2022-07-04T01:55:40;3.40;;;1.00;;
70535;SDS011;58089;48.752;11.338;2022-07-04T01:58:05;4.00;;;1.17;;
70535;SDS011;58089;48.752;11.338;2022-07-04T02:00:30;4.33;;;1.20;;
70535;SDS011;58089;48.752;11.338;2022-07-04T02:03:14;4.82;;;1.40;;
70535;SDS011;58089;48.752;11.338;2022-07-04T02:05:40;4.23;;;1.17;;
70535;SDS011;58089;48.752;11.338;2022-07-04T02:08:05;5.30;;;1.40;;
70535;SDS011;58089;48.752;11.338;2022-07-04T02:10:31;4.70;;;1.35;;
70535;SDS011;58089;48.752;11.338;2022-07-04T02:12:56;4.60;;;1.30;;
70535;SDS011;58089;48.752;11.338;2022-07-04T02:17:56;4.88;;;1.58;;
70535;SDS011;58089;48.752;11.338;2022-07-04T02:20:21;4.67;;;1.30;;
70535;SDS011;58089;48.752;11.338;2022-07-04T02:22:46;6.10;;;1.50;;
70535;SDS011;58089;48.752;11.338;2022-07-04T02:25:11;5.13;;;1.27;;
70535;SDS011;58089;48.752;11.338;2022-07-04T02:27:37;5.43;;;1.40;;
70535;SDS011;58089;48.752;11.338;2022-07-04T02:30:02;6.18;;;1.70;;
70535;SDS011;58089;48.752;11.338;2022-07-04T02:32:27;5.13;;;1.50;;
70535;SDS011;58089;48.752;11.338;2022-07-04T02:34:53;4.17;;;1.40;;
70535;SDS011;58089;48.752;11.338;2022-07-04T02:37:18;5.23;;;1.30;;
70535;SDS011;58089;48.752;11.338;2022-07-04T02:39:43;3.90;;;1.40;;
70535;SDS011;58089;48.752;11.338;2022-07-04T02:42:08;7.57;;;1.50;;
70535;SDS011;58089;48.752;11.338;2022-07-04T02:44:33;5.60;;;1.40;;
70535;SDS011;58089;48.752;11.338;2022-07-04T02:46:59;7.30;;;1.50;;
70535;SDS011;58089;48.752;11.338;2022-07-04T02:49:25;5.85;;;1.70;;
70535;SDS011;58089;48.752;11.338;2022-07-04T02:51:50;4.77;;;1.40;;
70535;SDS011;58089;48.752;11.338;2022-07-04T02:54:15;9.63;;;1.40;;
70535;SDS011;58089;48.752;11.338;2022-07-04T02:56:41;7.00;;;1.60;;
70535;SDS011;58089;48.752;11.338;2022-07-04T02:59:06;4.70;;;1.53;;
70535;SDS011;58089;48.752;11.338;2022-07-04T03:01:31;4.70;;;1.40;;
70535;SDS011;58089;48.752;11.338;2022-07-04T03:03:56;3.70;;;1.50;;
70535;SDS011;58089;48.752;11.338;2022-07-04T03:06:22;4.55;;;1.55;;
70535;SDS011;58089;48.752;11.338;2022-07-04T03:08:47;5.97;;;1.70;;
70535;SDS011;58089;48.752;11.338;2022-07-04T03:11:12;5.30;;;1.87;;
70535;SDS011;58089;48.752;11.338;2022-07-04T03:13:39;4.47;;;1.40;;
70535;SDS011;58089;48.752;11.338;2022-07-04T03:16:04;6.43;;;1.70;;
70535;SDS011;58089;48.752;11.338;2022-07-04T03:18:30;5.93;;;1.60;;
70535;SDS011;58089;48.752;11.338;2022-07-04T03:20:55;4.93;;;1.63;;
70535;SDS011;58089;48.752;11.338;2022-07-04T03:23:20;4.60;;;1.73;;
70535;SDS011;58089;48.752;11.338;2022-07-04T03:25:45;4.87;;;1.80;;
70535;SDS011;58089;48.752;11.338;2022-07-04T03:28:10;5.97;;;1.83;;
70535;SDS011;58089;48.752;11.338;2022-07-04T03:30:36;7.05;;;2.10;;
70535;SDS011;58089;48.752;11.338;2022-07-04T03:33:01;5.20;;;1.30;;
70535;SDS011;58089;48.752;11.338;2022-07-04T03:35:27;6.03;;;1.43;;
70535;SDS011;58089;48.752;11.338;2022-07-04T03:37:52;4.43;;;1.70;;
70535;SDS011;58089;48.752;11.338;2022-07-04T03:40:17;4.83;;;1.70;;
70535;SDS011;58089;48.752;11.338;2022-07-04T03:42:43;5.30;;;1.73;;
70535;SDS011;58089;48.752;11.338;2022-07-04T03:45:08;5.57;;;1.90;;
70535;SDS011;58089;48.752;11.338;2022-07-04T03:47:33;5.03;;;1.70;;
70535;SDS011;58089;48.752;11.338;2022-07-04T03:49:58;5.10;;;1.57;;
70535;SDS011;58089;48.752;11.338;2022-07-04T03:52:24;6.83;;;2.23;;
70535;SDS011;58089;48.752;11.338;2022-07-04T03:54:49;4.07;;;1.60;;
70535;SDS011;58089;48.752;11.338;2022-07-04T03:57:14;4.57;;;1.73;;
70535;SDS011;58089;48.752;11.338;2022-07-04T03:59:39;4.23;;;1.60;;
70535;SDS011;58089;48.752;11.338;2022-07-04T04:02:04;4.03;;;1.50;;
70535;SDS011;58089;48.752;11.338;2022-07-04T04:04:29;4.10;;;1.53;;
70535;SDS011;58089;48.752;11.338;2022-07-04T04:07:13;4.72;;;1.20;;
70535;SDS011;58089;48.752;11.338;2022-07-04T04:09:38;4.33;;;1.77;;
70535;SDS011;58089;48.752;11.338;2022-07-04T04:12:04;7.30;;;1.80;;
70535;SDS011;58089;48.752;11.338;2022-07-04T04:14:29;5.73;;;1.83;;
70535;SDS011;58089;48.752;11.338;2022-07-04T04:16:54;4.93;;;1.90;;
70535;SDS011;58089;48.752;11.338;2022-07-04T04:19:19;5.17;;;1.80;;
70535;SDS011;58089;48.752;11.338;2022-07-04T04:21:45;4.43;;;1.50;;
70535;SDS011;58089;48.752;11.338;2022-07-04T04:24:10;3.90;;;1.50;;
70535;SDS011;58089;48.752;11.338;2022-07-04T04:26:35;3.80;;;1.50;;
70535;SDS011;58089;48.752;11.338;2022-07-04T04:29:00;4.70;;;1.70;;
70535;SDS011;58089;48.752;11.338;2022-07-04T04:31:26;5.27;;;2.03;;
70535;SDS011;58089;48.752;11.338;2022-07-04T04:33:51;5.17;;;1.90;;
70535;SDS011;58089;48.752;11.338;2022-07-04T04:36:16;4.73;;;1.73;;
70535;SDS011;58089;48.752;11.338;2022-07-04T04:38:42;5.07;;;1.50;;
70535;SDS011;58089;48.752;11.338;2022-07-04T04:41:07;5.13;;;1.83;;
70535;SDS011;58089;48.752;11.338;2022-07-04T04:43:32;4.33;;;1.60;;
70535;SDS011;58089;48.752;11.338;2022-07-04T04:45:57;5.13;;;2.10;;
70535;SDS011;58089;48.752;11.338;2022-07-04T04:48:22;4.87;;;1.80;;
70535;SDS011;58089;48.752;11.338;2022-07-04T04:50:48;7.73;;;1.87;;
70535;SDS011;58089;48.752;11.338;2022-07-04T04:53:13;6.13;;;2.10;;
70535;SDS011;58089;48.752;11.338;2022-07-04T04:55:38;4.27;;;1.60;;
70535;SDS011;58089;48.752;11.338;2022-07-04T04:58:04;5.70;;;1.80;;
70535;SDS011;58089;48.752;11.338;2022-07-04T05:00:29;5.87;;;2.00;;
70535;SDS011;58089;48.752;11.338;2022-07-04T05:02:54;7.70;;;1.70;;
70535;SDS011;58089;48.752;11.338;2022-07-04T05:05:19;5.83;;;1.70;;
70535;SDS011;58089;48.752;11.338;2022-07-04T05:07:44;4.00;;;1.70;;
70535;SDS011;58089;48.752;11.338;2022-07-04T05:10:10;4.23;;;1.43;;
70535;SDS011;58089;48.752;11.338;2022-07-04T05:12:35;6.00;;;1.90;;
70535;SDS011;58089;48.752;11.338;2022-07-04T05:15:00;5.00;;;1.90;;
70535;SDS011;58089;48.752;11.338;2022-07-04T05:17:26;4.37;;;2.10;;
70535;SDS011;58089;48.752;11.338;2022-07-04T05:19:51;4.00;;;1.47;;
70535;SDS011;58089;48.752;11.338;2022-07-04T05:22:16;4.47;;;1.70;;
70535;SDS011;58089;48.752;11.338;2022-07-04T05:24:42;6.73;;;2.03;;
70535;SDS011;58089;48.752;11.338;2022-07-04T05:27:07;5.10;;;1.98;;
70535;SDS011;58089;48.752;11.338;2022-07-04T05:29:32;4.47;;;1.80;;
70535;SDS011;58089;48.752;11.338;2022-07-04T05:31:58;5.50;;;2.47;;
70535;SDS011;58089;48.752;11.338;2022-07-04T05:34:23;9.37;;;2.30;;
70535;SDS011;58089;48.752;11.338;2022-07-04T05:36:48;5.73;;;2.17;;
70535;SDS011;58089;48.752;11.338;2022-07-04T05:39:14;5.27;;;1.90;;
70535;SDS011;58089;48.752;11.338;2022-07-04T05:41:39;5.73;;;2.07;;
70535;SDS011;58089;48.752;11.338;2022-07-04T05:44:04;6.00;;;1.80;;
70535;SDS011;58089;48.752;11.338;2022-07-04T05:46:29;7.43;;;2.30;;
70535;SDS011;58089;48.752;11.338;2022-07-04T05:48:55;4.80;;;2.00;;
70535;SDS011;58089;48.752;11.338;2022-07-04T05:51:21;4.80;;;1.83;;
70535;SDS011;58089;48.752;11.338;2022-07-04T05:53:46;5.32;;;1.90;;
70535;SDS011;58089;48.752;11.338;2022-07-04T05:56:12;6.13;;;2.30;;
70535;SDS011;58089;48.752;11.338;2022-07-04T05:58:38;5.55;;;2.50;;
70535;SDS011;58089;48.752;11.338;2022-07-04T06:01:03;7.00;;;2.10;;
70535;SDS011;58089;48.752;11.338;2022-07-04T06:03:28;6.00;;;1.90;;
70535;SDS011;58089;48.752;11.338;2022-07-04T06:05:53;6.27;;;1.90;;
70535;SDS011;58089;48.752;11.338;2022-07-04T06:08:18;4.53;;;2.00;;
70535;SDS011;58089;48.752;11.338;2022-07-04T06:10:45;5.15;;;2.00;;
70535;SDS011;58089;48.752;11.338;2022-07-04T06:13:10;6.47;;;2.10;;
70535;SDS011;58089;48.752;11.338;2022-07-04T06:15:35;6.57;;;2.07;;
70535;SDS011;58089;48.752;11.338;2022-07-04T06:18:01;9.17;;;2.10;;
70535;SDS011;58089;48.752;11.338;2022-07-04T06:20:27;7.03;;;2.20;;
70535;SDS011;58089;48.752;11.338;2022-07-04T06:22:52;4.77;;;1.57;;
70535;SDS011;58089;48.752;11.338;2022-07-04T06:25:18;7.97;;;1.90;;
70535;SDS011;58089;48.752;11.338;2022-07-04T06:27:44;5.85;;;2.05;;
70535;SDS011;58089;48.752;11.338;2022-07-04T06:30:09;5.13;;;1.83;;
70535;SDS011;58089;48.752;11.338;2022-07-04T06:32:41;5.80;;;2.07;;
70535;SDS011;58089;48.752;11.338;2022-07-04T06:35:07;6.10;;;1.87;;
70535;SDS011;58089;48.752;11.338;2022-07-04T06:37:51;5.03;;;1.73;;
70535;SDS011;58089;48.752;11.338;2022-07-04T06:40:16;4.43;;;1.93;;
70535;SDS011;58089;48.752;11.338;2022-07-04T06:42:41;5.20;;;2.03;;
70535;SDS011;58089;48.752;11.338;2022-07-04T06:45:07;6.70;;;1.93;;
70535;SDS011;58089;48.752;11.338;2022-07-04T06:47:32;6.10;;;2.03;;
70535;SDS011;58089;48.752;11.338;2022-07-04T06:49:57;4.77;;;1.83;;
70535;SDS011;58089;48.752;11.338;2022-07-04T06:52:22;6.33;;;1.93;;
70535;SDS011;58089;48.752;11.338;2022-07-04T06:54:47;8.70;;;1.70;;
70535;SDS011;58089;48.752;11.338;2022-07-04T06:57:13;4.80;;;1.83;;
70535;SDS011;58089;48.752;11.338;2022-07-04T06:59:39;4.87;;;2.03;;
70535;SDS011;58089;48.752;11.338;2022-07-04T07:02:04;5.87;;;1.77;;
70535;SDS011;58089;48.752;11.338;2022-07-04T07:04:29;4.60;;;1.93;;
70535;SDS011;58089;48.752;11.338;2022-07-04T07:06:54;6.50;;;2.30;;
70535;SDS011;58089;48.752;11.338;2022-07-04T07:09:20;5.07;;;2.37;;
70535;SDS011;58089;48.752;11.338;2022-07-04T07:11:45;5.53;;;1.90;;
70535;SDS011;58089;48.752;11.338;2022-07-04T07:14:11;8.57;;;2.20;;
70535;SDS011;58089;48.752;11.338;2022-07-04T07:16:36;7.10;;;1.50;;
70535;SDS011;58089;48.752;11.338;2022-07-04T07:19:01;7.37;;;1.90;;
70535;SDS011;58089;48.752;11.338;2022-07-04T07:21:26;8.20;;;1.87;;
70535;SDS011;58089;48.752;11.338;2022-07-04T07:23:51;5.03;;;1.80;;
70535;SDS011;58089;48.752;11.338;2022-07-04T07:26:16;5.60;;;2.00;;
70535;SDS011;58089;48.752;11.338;2022-07-04T07:28:42;7.40;;;1.80;;
70535;SDS011;58089;48.752;11.338;2022-07-04T07:31:07;4.17;;;1.83;;
70535;SDS011;58089;48.752;11.338;2022-07-04T07:33:32;6.57;;;2.00;;
70535;SDS011;58089;48.752;11.338;2022-07-04T07:35:57;5.20;;;2.00;;
70535;SDS011;58089;48.752;11.338;2022-07-04T07:38:23;4.23;;;1.80;;
70535;SDS011;58089;48.752;11.338;2022-07-04T07:40:48;5.30;;;1.90;;
70535;SDS011;58089;48.752;11.338;2022-07-04T07:43:13;5.07;;;1.87;;
70535;SDS011;58089;48.752;11.338;2022-07-04T07:45:38;5.87;;;2.00;;
70535;SDS011;58089;48.752;11.338;2022-07-04T07:48:03;4.57;;;1.80;;
70535;SDS011;58089;48.752;11.338;2022-07-04T07:50:29;5.17;;;2.07;;
70535;SDS011;58089;48.752;11.338;2022-07-04T07:52:54;6.53;;;2.70;;
70535;SDS011;58089;48.752;11.338;2022-07-04T07:55:19;8.23;;;2.53;;
70535;SDS011;58089;48.752;11.338;2022-07-04T07:57:45;7.70;;;2.00;;
70535;SDS011;58089;48.752;11.338;2022-07-04T08:00:10;7.97;;;2.60;;
70535;SDS011;58089;48.752;11.338;2022-07-04T08:02:36;9.05;;;2.92;;
70535;SDS011;58089;48.752;11.338;2022-07-04T08:05:20;7.05;;;2.47;;
70535;SDS011;58089;48.752;11.338;2022-07-04T08:07:46;5.03;;;1.80;;
70535;SDS011;58089;48.752;11.338;2022-07-04T08:10:11;5.70;;;1.87;;
70535;SDS011;58089;48.752;11.338;2022-07-04T08:12:36;5.13;;;1.73;;
70535;SDS011;58089;48.752;11.338;2022-07-04T08:15:02;6.00;;;1.98;;
70535;SDS011;58089;48.752;11.338;2022-07-04T08:17:27;7.50;;;2.10;;
70535;SDS011;58089;48.752;11.338;2022-07-04T08:19:53;7.30;;;2.30;;
70535;SDS011;58089;48.752;11.338;2022-07-04T08:22:18;4.97;;;1.58;;
70535;SDS011;58089;48.752;11.338;2022-07-04T08:24:43;5.45;;;2.00;;
70535;SDS011;58089;48.752;11.338;2022-07-04T08:27:09;5.60;;;1.80;;
70535;SDS011;58089;48.752;11.338;2022-07-04T08:29:34;4.57;;;1.70;;
70535;SDS011;58089;48.752;11.338;2022-07-04T08:31:59;5.53;;;1.97;;
70535;SDS011;58089;48.752;11.338;2022-07-04T08:34:25;6.67;;;1.90;;
70535;SDS011;58089;48.752;11.338;2022-07-04T08:36:50;5.23;;;1.70;;
70535;SDS011;58089;48.752;11.338;2022-07-04T08:39:15;5.83;;;1.87;;
70535;SDS011;58089;48.752;11.338;2022-07-04T08:41:41;5.25;;;2.13;;
70535;SDS011;58089;48.752;11.338;2022-07-04T08:44:07;5.60;;;1.90;;
70535;SDS011;58089;48.752;11.338;2022-07-04T08:46:35;5.35;;;1.60;;
70535;SDS011;58089;48.752;11.338;2022-07-04T08:49:01;4.47;;;1.92;;
70535;SDS011;58089;48.752;11.338;2022-07-04T08:53:56;6.78;;;1.50;;
70535;SDS011;58089;48.752;11.338;2022-07-04T08:56:22;5.88;;;1.67;;
70535;SDS011;58089;48.752;11.338;2022-07-04T08:59:06;4.72;;;1.73;;
70535;SDS011;58089;48.752;11.338;2022-07-04T09:01:33;6.17;;;2.00;;
70535;SDS011;58089;48.752;11.338;2022-07-04T09:03:58;6.55;;;2.03;;
70535;SDS011;58089;48.752;11.338;2022-07-04T09:06:24;6.68;;;2.00;;
70535;SDS011;58089;48.752;11.338;2022-07-04T09:08:49;5.97;;;2.40;;
70535;SDS011;58089;48.752;11.338;2022-07-04T09:11:14;7.20;;;2.33;;
70535;SDS011;58089;48.752;11.338;2022-07-04T09:13:40;5.27;;;1.70;;
70535;SDS011;58089;48.752;11.338;2022-07-04T09:16:05;5.27;;;1.87;;
70535;SDS011;58089;48.752;11.338;2022-07-04T09:18:31;5.80;;;1.70;;
70535;SDS011;58089;48.752;11.338;2022-07-04T09:20:58;6.30;;;2.03;;
70535;SDS011;58089;48.752;11.338;2022-07-04T09:23:28;5.22;;;2.00;;
70535;SDS011;58089;48.752;11.338;2022-07-04T09:26:13;4.50;;;1.63;;
70535;SDS011;58089;48.752;11.338;2022-07-04T09:28:40;9.68;;;2.00;;
70535;SDS011;58089;48.752;11.338;2022-07-04T09:31:15;5.20;;;1.85;;
70535;SDS011;58089;48.752;11.338;2022-07-04T09:33:45;5.87;;;2.00;;
70535;SDS011;58089;48.752;11.338;2022-07-04T09:36:12;7.15;;;2.03;;
70535;SDS011;58089;48.752;11.338;2022-07-04T09:38:37;7.30;;;2.00;;
70535;SDS011;58089;48.752;11.338;2022-07-04T09:41:02;5.13;;;1.80;;
70535;SDS011;58089;48.752;11.338;2022-07-04T09:43:59;6.28;;;2.15;;
70535;SDS011;58089;48.752;11.338;2022-07-04T09:46:25;4.80;;;1.73;;
70535;SDS011;58089;48.752;11.338;2022-07-04T09:48:51;5.80;;;1.90;;
70535;SDS011;58089;48.752;11.338;2022-07-04T09:51:34;4.55;;;1.70;;
70535;SDS011;58089;48.752;11.338;2022-07-04T09:54:11;4.87;;;1.97;;
70535;SDS011;58089;48.752;11.338;2022-07-04T09:56:40;5.35;;;1.83;;
70535;SDS011;58089;48.752;11.338;2022-07-04T09:59:05;5.93;;;1.67;;
70535;SDS011;58089;48.752;11.338;2022-07-04T10:01:31;6.13;;;1.83;;
70535;SDS011;58089;48.752;11.338;2022-07-04T10:03:56;5.10;;;1.83;;
70535;SDS011;58089;48.752;11.338;2022-07-04T10:06:22;10.52;;;1.90;;
70535;SDS011;58089;48.752;11.338;2022-07-04T10:08:49;4.93;;;1.80;;
70535;SDS011;58089;48.752;11.338;2022-07-04T10:11:14;6.25;;;1.70;;
70535;SDS011;58089;48.752;11.338;2022-07-04T10:13:40;6.33;;;2.03;;
70535;SDS011;58089;48.752;11.338;2022-07-04T10:16:05;4.37;;;1.60;;
70535;SDS011;58089;48.752;11.338;2022-07-04T10:18:33;5.35;;;1.77;;
70535;SDS011;58089;48.752;11.338;2022-07-04T10:20:59;4.32;;;1.60;;
70535;SDS011;58089;48.752;11.338;2022-07-04T10:23:25;5.87;;;2.03;;
70535;SDS011;58089;48.752;11.338;2022-07-04T10:25:56;5.93;;;1.90;;
70535;SDS011;58089;48.752;11.338;2022-07-04T10:28:21;5.07;;;1.70;;
70535;SDS011;58089;48.752;11.338;2022-07-04T10:30:50;4.47;;;1.50;;
70535;SDS011;58089;48.752;11.338;2022-07-04T10:33:16;5.45;;;1.45;;
70535;SDS011;58089;48.752;11.338;2022-07-04T10:35:53;6.03;;;1.90;;
70535;SDS011;58089;48.752;11.338;2022-07-04T10:38:23;5.95;;;2.25;;
70535;SDS011;58089;48.752;11.338;2022-07-04T10:40:49;6.00;;;1.87;;
70535;SDS011;58089;48.752;11.338;2022-07-04T10:45:56;5.18;;;1.60;;
70535;SDS011;58089;48.752;11.338;2022-07-04T10:48:22;4.67;;;1.73;;
70535;SDS011;58089;48.752;11.338;2022-07-04T10:51:04;11.93;;;2.63;;
70535;SDS011;58089;48.752;11.338;2022-07-04T10:53:30;5.13;;;1.88;;
70535;SDS011;58089;48.752;11.338;2022-07-04T10:56:03;6.33;;;2.00;;
70535;SDS011;58089;48.752;11.338;2022-07-04T10:58:41;4.60;;;1.70;;
70535;SDS011;58089;48.752;11.338;2022-07-04T11:01:13;7.72;;;1.65;;
70535;SDS011;58089;48.752;11.338;2022-07-04T11:03:45;4.72;;;1.80;;
70535;SDS011;58089;48.752;11.338;2022-07-04T11:11:51;7.57;;;1.40;;
70535;SDS011;58089;48.752;11.338;2022-07-04T11:17:00;5.97;;;1.98;;
70535;SDS011;58089;48.752;11.338;2022-07-04T11:19:26;5.67;;;1.60;;
70535;SDS011;58089;48.752;11.338;2022-07-04T11:21:53;6.10;;;1.80;;
70535;SDS011;58089;48.752;11.338;2022-07-04T11:24:18;5.20;;;1.70;;
70535;SDS011;58089;48.752;11.338;2022-07-04T11:26:44;4.27;;;1.40;;
70535;SDS011;58089;48.752;11.338;2022-07-04T11:29:12;6.30;;;1.92;;
70535;SDS011;58089;48.752;11.338;2022-07-04T11:31:38;4.82;;;1.70;;
70535;SDS011;58089;48.752;11.338;2022-07-04T11:34:03;4.40;;;1.50;;
70535;SDS011;58089;48.752;11.338;2022-07-04T11:36:29;4.13;;;1.30;;
70535;SDS011;58089;48.752;11.338;2022-07-04T11:38:55;4.57;;;1.53;;
70535;SDS011;58089;48.752;11.338;2022-07-04T11:41:28;8.20;;;1.77;;
70535;SDS011;58089;48.752;11.338;2022-07-04T11:44:13;9.57;;;1.92;;
70535;SDS011;58089;48.752;11.338;2022-07-04T11:47:04;4.63;;;1.60;;
70535;SDS011;58089;48.752;11.338;2022-07-04T11:49:30;8.00;;;1.70;;
70535;SDS011;58089;48.752;11.338;2022-07-04T11:51:55;5.23;;;1.30;;
70535;SDS011;58089;48.752;11.338;2022-07-04T11:54:20;5.53;;;1.50;;
70535;SDS011;58089;48.752;11.338;2022-07-04T11:56:46;5.82;;;1.50;;
70535;SDS011;58089;48.752;11.338;2022-07-04T11:59:12;4.57;;;1.60;;
70535;SDS011;58089;48.752;11.338;2022-07-04T12:01:38;4.40;;;1.55;;
70535;SDS011;58089;48.752;11.338;2022-07-04T12:04:16;4.63;;;1.40;;
70535;SDS011;58089;48.752;11.338;2022-07-04T12:06:45;4.88;;;1.20;;
70535;SDS011;58089;48.752;11.338;2022-07-04T12:09:11;7.10;;;1.80;;
70535;SDS011;58089;48.752;11.338;2022-07-04T12:11:56;6.13;;;1.77;;
70535;SDS011;58089;48.752;11.338;2022-07-04T12:14:22;4.90;;;1.70;;
70535;SDS011;58089;48.752;11.338;2022-07-04T12:16:47;3.95;;;1.30;;
70535;SDS011;58089;48.752;11.338;2022-07-04T12:19:13;4.40;;;1.40;;
70535;SDS011;58089;48.752;11.338;2022-07-04T12:21:38;5.23;;;1.90;;
70535;SDS011;58089;48.752;11.338;2022-07-04T12:24:04;6.07;;;1.70;;
70535;SDS011;58089;48.752;11.338;2022-07-04T12:26:32;5.27;;;1.40;;
70535;SDS011;58089;48.752;11.338;2022-07-04T12:28:57;4.60;;;1.60;;
70535;SDS011;58089;48.752;11.338;2022-07-04T12:34:04;9.15;;;1.67;;
70535;SDS011;58089;48.752;11.338;2022-07-04T12:39:30;4.35;;;1.58;;
70535;SDS011;58089;48.752;11.338;2022-07-04T12:44:41;4.10;;;1.40;;
70535;SDS011;58089;48.752;11.338;2022-07-04T12:47:07;5.32;;;1.60;;
70535;SDS011;58089;48.752;11.338;2022-07-04T12:49:32;7.00;;;1.80;;
70535;SDS011;58089;48.752;11.338;2022-07-04T12:52:08;4.87;;;1.50;;
70535;SDS011;58089;48.752;11.338;2022-07-04T12:54:34;4.95;;;1.48;;
70535;SDS011;58089;48.752;11.338;2022-07-04T12:57:11;4.47;;;1.42;;
70535;SDS011;58089;48.752;11.338;2022-07-04T12:59:37;5.07;;;2.08;;
70535;SDS011;58089;48.752;11.338;2022-07-04T13:02:02;6.20;;;1.80;;
70535;SDS011;58089;48.752;11.338;2022-07-04T13:04:27;4.23;;;1.37;;
70535;SDS011;58089;48.752;11.338;2022-07-04T13:06:53;5.05;;;1.70;;
70535;SDS011;58089;48.752;11.338;2022-07-04T13:09:18;4.30;;;1.30;;
70535;SDS011;58089;48.752;11.338;2022-07-04T13:11:43;4.67;;;1.50;;
70535;SDS011;58089;48.752;11.338;2022-07-04T13:14:27;5.38;;;2.00;;
70535;SDS011;58089;48.752;11.338;2022-07-04T13:16:52;4.17;;;1.63;;
70535;SDS011;58089;48.752;11.338;2022-07-04T13:19:18;5.57;;;1.80;;
70535;SDS011;58089;48.752;11.338;2022-07-04T13:21:43;6.90;;;1.87;;
70535;SDS011;58089;48.752;11.338;2022-07-04T13:24:08;4.50;;;1.60;;
70535;SDS011;58089;48.752;11.338;2022-07-04T13:26:34;4.82;;;1.90;;
70535;SDS011;58089;48.752;11.338;2022-07-04T13:28:59;4.07;;;1.53;;
70535;SDS011;58089;48.752;11.338;2022-07-04T13:31:26;4.18;;;1.40;;
70535;SDS011;58089;48.752;11.338;2022-07-04T13:33:53;4.70;;;1.63;;
70535;SDS011;58089;48.752;11.338;2022-07-04T13:36:18;5.93;;;1.63;;
70535;SDS011;58089;48.752;11.338;2022-07-04T13:38:43;6.47;;;2.07;;
70535;SDS011;58089;48.752;11.338;2022-07-04T13:41:08;4.67;;;1.60;;
70535;SDS011;58089;48.752;11.338;2022-07-04T13:43:33;5.50;;;1.70;;
70535;SDS011;58089;48.752;11.338;2022-07-04T13:45:59;5.17;;;1.50;;
70535;SDS011;58089;48.752;11.338;2022-07-04T13:48:24;4.17;;;1.50;;
70535;SDS011;58089;48.752;11.338;2022-07-04T13:50:49;6.00;;;1.90;;
70535;SDS011;58089;48.752;11.338;2022-07-04T13:53:14;5.63;;;1.93;;
70535;SDS011;58089;48.752;11.338;2022-07-04T13:55:40;6.03;;;1.60;;
70535;SDS011;58089;48.752;11.338;2022-07-04T13:58:05;4.80;;;1.80;;
70535;SDS011;58089;48.752;11.338;2022-07-04T14:00:31;5.07;;;1.63;;
70535;SDS011;58089;48.752;11.338;2022-07-04T14:02:57;5.53;;;1.50;;
70535;SDS011;58089;48.752;11.338;2022-07-04T14:05:22;5.37;;;1.70;;
70535;SDS011;58089;48.752;11.338;2022-07-04T14:07:49;4.82;;;1.70;;
70535;SDS011;58089;48.752;11.338;2022-07-04T14:10:14;5.83;;;1.87;;
70535;SDS011;58089;48.752;11.338;2022-07-04T14:12:39;5.60;;;1.83;;
70535;SDS011;58089;48.752;11.338;2022-07-04T14:15:05;4.37;;;1.40;;
70535;SDS011;58089;48.752;11.338;2022-07-04T14:17:30;5.00;;;1.80;;
70535;SDS011;58089;48.752;11.338;2022-07-04T14:19:55;4.87;;;1.50;;
70535;SDS011;58089;48.752;11.338;2022-07-04T14:22:21;4.40;;;1.40;;
70535;SDS011;58089;48.752;11.338;2022-07-04T14:24:46;6.13;;;1.97;;
70535;SDS011;58089;48.752;11.338;2022-07-04T14:27:11;8.47;;;1.70;;
70535;SDS011;58089;48.752;11.338;2022-07-04T14:29:36;3.93;;;1.50;;
70535;SDS011;58089;48.752;11.338;2022-07-04T14:32:02;4.50;;;1.60;;
70535;SDS011;58089;48.752;11.338;2022-07-04T14:34:27;5.50;;;1.50;;
70535;SDS011;58089;48.752;11.338;2022-07-04T14:36:52;4.35;;;1.75;;
70535;SDS011;58089;48.752;11.338;2022-07-04T14:39:18;6.00;;;1.70;;
70535;SDS011;58089;48.752;11.338;2022-07-04T14:41:43;5.90;;;1.47;;
70535;SDS011;58089;48.752;11.338;2022-07-04T14:44:11;5.30;;;1.77;;
70535;SDS011;58089;48.752;11.338;2022-07-04T14:46:36;4.18;;;1.50;;
70535;SDS011;58089;48.752;11.338;2022-07-04T14:49:02;4.65;;;1.60;;
70535;SDS011;58089;48.752;11.338;2022-07-04T14:51:27;7.37;;;1.80;;
70535;SDS011;58089;48.752;11.338;2022-07-04T14:53:52;5.23;;;1.80;;